Time;durP1;ratioP1;P1;durP2;ratioP2;P2;SDS_P1;SDS_P2;PMS_P1;PMS_P2;Temp;Humidity;BMP_temperature;BMP_pressure;BME280_temperature;BME280_humidity;BME280_pressure;Samples;Min_cycle;Max_cycle;Signal;HPM_P1;HPM_P2
2023/07/04 00:01:24;;;;;;;;;;;;;;;24.57;46.70;100182.87;5401591;32;35356;-73
2023/07/04 00:04:29;;;;;;;;;;;;;;;24.85;45.87;100188.12;5376686;32;36435;-77
2023/07/04 00:07:34;;;;;;;;;;;;;;;23.99;49.68;100195.84;5411803;32;34836;-76
2023/07/04 00:10:37;;;;;;;;;;;;;;;23.89;50.91;100200.44;5401321;32;34346;-75
2023/07/04 00:13:39;;;;;;;;;;;;;;;24.04;51.85;100194.41;5406207;32;35704;-75
2023/07/04 00:16:41;;;;;;;;;;;;;;;24.28;51.29;100199.19;5403030;32;35639;-74
2023/07/04 00:19:43;;;;;;;;;;;;;;;23.36;54.14;100198.38;5405557;32;36758;-74
2023/07/04 00:22:45;;;;;;;;;;;;;;;23.52;53.97;100195.94;5403633;32;36201;-76
2023/07/04 00:25:47;;;;;;;;;;;;;;;23.88;53.14;100191.53;5399316;32;35596;-73
2023/07/04 00:28:49;;;;;;;;;;;;;;;24.05;52.46;100198.78;5393125;32;34687;-74
2023/07/04 00:31:52;;;;;;;;;;;;;;;23.75;52.81;100191.88;5388210;32;34388;-73
2023/07/04 00:34:53;;;;;;;;;;;;;;;24.25;51.83;100193.28;5391374;32;35315;-74
2023/07/04 00:37:56;;;;;;;;;;;;;;;24.26;51.36;100201.19;5403530;32;34535;-74
2023/07/04 00:41:01;;;;;;;;;;;;;;;23.68;52.57;100198.84;5401270;32;34957;-73
2023/07/04 00:44:13;;;;;;;;;;;;;;;23.72;52.81;100202.94;5375676;32;34881;-74
2023/07/04 00:47:21;;;;;;;;;;;;;;;23.74;52.53;100200.09;5386574;32;35486;-75
2023/07/04 00:50:25;;;;;;;;;;;;;;;23.64;52.88;100200.16;5404254;32;34416;-75
2023/07/04 00:53:27;;;;;;;;;;;;;;;24.22;50.79;100199.81;5403835;32;35449;-74
2023/07/04 00:56:30;;;;;;;;;;;;;;;24.13;50.99;100197.19;5406045;32;34414;-75
2023/07/04 00:59:33;;;;;;;;;;;;;;;23.51;52.16;100202.31;5376178;32;35111;-75
2023/07/04 01:02:35;;;;;;;;;;;;;;;23.54;51.76;100199.31;5392163;32;34315;-74
2023/07/04 01:05:39;;;;;;;;;;;;;;;24.07;50.02;100200.47;5395132;32;35635;-76
2023/07/04 01:08:42;;;;;;;;;;;;;;;23.92;50.26;100192.94;5404348;32;35535;-74
2023/07/04 01:11:45;;;;;;;;;;;;;;;23.63;51.30;100189.53;5395616;32;34130;-76
2023/07/04 01:14:50;;;;;;;;;;;;;;;23.64;52.28;100186.75;5390459;32;34671;-76
2023/07/04 01:17:52;;;;;;;;;;;;;;;23.69;52.63;100191.62;5405549;32;35369;-75
2023/07/04 01:20:54;;;;;;;;;;;;;;;23.48;53.62;100190.00;5403733;32;35404;-74
2023/07/04 01:24:05;;;;;;;;;;;;;;;23.96;52.16;100191.66;5389972;32;34390;-74
2023/07/04 01:27:08;;;;;;;;;;;;;;;23.73;53.04;100191.19;5396292;32;34432;-73
2023/07/04 01:30:10;;;;;;;;;;;;;;;23.35;54.30;100188.66;5404722;32;34366;-75
2023/07/04 01:33:15;;;;;;;;;;;;;;;23.37;54.21;100187.50;5405426;32;35144;-75
2023/07/04 01:36:18;;;;;;;;;;;;;;;23.42;54.50;100187.06;5401361;32;34218;-75
2023/07/04 01:39:21;;;;;;;;;;;;;;;23.74;53.29;100184.00;5409483;32;35340;-74
2023/07/04 01:42:23;;;;;;;;;;;;;;;23.37;54.43;100182.16;5407587;32;34369;-75
2023/07/04 01:45:25;;;;;;;;;;;;;;;23.00;55.21;100195.53;5397684;32;34262;-75
2023/07/04 01:48:27;;;;;;;;;;;;;;;23.17;54.36;100202.81;5408832;32;34277;-74
2023/07/04 01:51:30;;;;;;;;;;;;;;;23.62;53.15;100196.75;5390013;32;34326;-75
2023/07/04 01:54:32;;;;;;;;;;;;;;;23.68;52.56;100201.53;5407760;32;34835;-74
2023/07/04 01:57:34;;;;;;;;;;;;;;;22.93;54.68;100211.34;5406988;32;34317;-73
2023/07/04 02:00:37;;;;;;;;;;;;;;;23.19;54.10;100216.94;5405555;32;34685;-74
2023/07/04 02:03:39;;;;;;;;;;;;;;;23.35;53.06;100215.47;5406253;32;35592;-75
2023/07/04 02:06:42;;;;;;;;;;;;;;;23.39;53.50;100222.25;5390770;32;34289;-75
2023/07/04 02:09:44;;;;;;;;;;;;;;;24.00;51.40;100229.75;5394113;32;35865;-76
2023/07/04 02:12:46;;;;;;;;;;;;;;;24.19;50.36;100224.25;5399194;32;34301;-75
2023/07/04 02:15:49;;;;;;;;;;;;;;;22.93;53.97;100234.63;5382786;32;35538;-75
2023/07/04 02:18:51;;;;;;;;;;;;;;;23.82;51.71;100226.16;5388934;32;34883;-75
2023/07/04 02:21:53;;;;;;;;;;;;;;;24.21;50.05;100235.69;5404650;32;34113;-75
2023/07/04 02:24:55;;;;;;;;;;;;;;;23.14;53.14;100248.69;5391058;32;34890;-74
2023/07/04 02:27:57;;;;;;;;;;;;;;;23.16;53.86;100253.91;5401885;32;35611;-75
2023/07/04 02:30:59;;;;;;;;;;;;;;;22.94;55.20;100252.41;5392789;32;35071;-74
2023/07/04 02:34:02;;;;;;;;;;;;;;;23.38;52.65;100258.06;5376717;32;35593;-73
2023/07/04 02:37:04;;;;;;;;;;;;;;;24.38;49.94;100260.06;5394781;32;34871;-75
2023/07/04 02:40:06;;;;;;;;;;;;;;;24.79;49.63;100266.69;5401486;32;34475;-73
2023/07/04 02:43:08;;;;;;;;;;;;;;;24.79;50.20;100277.44;5397708;32;34294;-77
2023/07/04 02:46:10;;;;;;;;;;;;;;;24.40;52.61;100283.09;5375918;32;34693;-74
2023/07/04 02:49:12;;;;;;;;;;;;;;;24.97;50.20;100290.88;5387974;32;34358;-74
2023/07/04 02:52:15;;;;;;;;;;;;;;;24.83;49.78;100290.41;5407731;32;34211;-73
2023/07/04 02:55:18;;;;;;;;;;;;;;;23.59;52.85;100295.44;5400635;32;34327;-73
2023/07/04 02:58:20;;;;;;;;;;;;;;;23.56;52.13;100291.19;5408200;32;35019;-74
2023/07/04 03:01:22;;;;;;;;;;;;;;;24.06;50.38;100296.28;5375128;32;35908;-75
2023/07/04 03:04:24;;;;;;;;;;;;;;;23.61;51.66;100299.69;5404633;32;35599;-73
2023/07/04 03:07:26;;;;;;;;;;;;;;;24.20;50.43;100295.75;5406183;32;36137;-74
2023/07/04 03:10:28;;;;;;;;;;;;;;;23.27;52.86;100303.84;5401824;32;34939;-73
2023/07/04 03:13:31;;;;;;;;;;;;;;;23.67;52.17;100292.91;5392810;32;35739;-75
2023/07/04 03:16:33;;;;;;;;;;;;;;;23.61;52.60;100302.38;5403989;32;35668;-74
2023/07/04 03:19:35;;;;;;;;;;;;;;;23.16;54.51;100307.53;5405088;32;35489;-73
2023/07/04 03:22:38;;;;;;;;;;;;;;;23.37;54.65;100310.03;5398857;32;35470;-76
2023/07/04 03:25:40;;;;;;;;;;;;;;;23.15;56.51;100311.19;5403578;32;34498;-75
2023/07/04 03:28:42;;;;;;;;;;;;;;;22.41;60.38;100311.66;5380403;32;35556;-75
2023/07/04 03:31:44;;;;;;;;;;;;;;;22.63;62.53;100310.59;5402323;32;34335;-74
2023/07/04 03:34:46;;;;;;;;;;;;;;;22.27;63.37;100320.09;5406641;32;35577;-75
2023/07/04 03:37:48;;;;;;;;;;;;;;;22.68;63.03;100325.25;5403971;32;34288;-74
2023/07/04 03:40:50;;;;;;;;;;;;;;;23.26;61.87;100319.09;5406558;32;34323;-75
2023/07/04 03:43:52;;;;;;;;;;;;;;;22.53;66.24;100312.41;5387464;32;34419;-75
2023/07/04 03:46:54;;;;;;;;;;;;;;;22.28;68.96;100311.06;5399176;32;33184;-74
2023/07/04 03:49:56;;;;;;;;;;;;;;;22.08;69.50;100316.31;5403842;32;34580;-75
2023/07/04 03:52:58;;;;;;;;;;;;;;;21.55;73.88;100313.84;5394702;32;34658;-75
2023/07/04 03:56:00;;;;;;;;;;;;;;;22.45;70.41;100307.72;5405848;32;34337;-74
2023/07/04 03:59:02;;;;;;;;;;;;;;;22.03;71.25;100313.22;5400801;32;33553;-73
2023/07/04 04:02:04;;;;;;;;;;;;;;;21.56;72.37;100322.69;5409164;32;34404;-73
2023/07/04 04:05:06;;;;;;;;;;;;;;;21.27;77.02;100315.31;5403581;32;34740;-74
2023/07/04 04:08:08;;;;;;;;;;;;;;;22.13;72.98;100319.47;5397854;32;35603;-75
2023/07/04 04:11:10;;;;;;;;;;;;;;;21.74;73.79;100325.63;5406030;32;34358;-75
2023/07/04 04:14:12;;;;;;;;;;;;;;;21.45;74.12;100326.31;5402676;32;35393;-73
2023/07/04 04:17:14;;;;;;;;;;;;;;;20.70;76.40;100327.22;5395123;32;34152;-72
2023/07/04 04:20:16;;;;;;;;;;;;;;;20.91;74.42;100319.25;5390153;32;34293;-75
2023/07/04 04:23:18;;;;;;;;;;;;;;;21.43;72.63;100322.91;5380962;32;37916;-74
2023/07/04 04:26:20;;;;;;;;;;;;;;;22.16;72.34;100321.06;5401230;32;34319;-75
2023/07/04 04:29:22;;;;;;;;;;;;;;;21.86;72.91;100328.09;5401807;32;34168;-75
2023/07/04 04:32:24;;;;;;;;;;;;;;;22.73;67.38;100316.78;5391847;32;34453;-73
2023/07/04 04:35:26;;;;;;;;;;;;;;;22.41;69.93;100317.00;5403626;32;34387;-73
2023/07/04 04:38:28;;;;;;;;;;;;;;;21.81;73.46;100329.47;5403596;32;34395;-73
2023/07/04 04:41:30;;;;;;;;;;;;;;;21.58;74.17;100323.44;5404290;32;35384;-73
2023/07/04 04:44:32;;;;;;;;;;;;;;;22.40;69.89;100326.88;5404966;32;35069;-74
2023/07/04 04:47:34;;;;;;;;;;;;;;;21.63;74.07;100322.03;5401996;32;35426;-73
2023/07/04 04:50:36;;;;;;;;;;;;;;;21.78;74.90;100319.03;5405227;32;34760;-73
2023/07/04 04:53:39;;;;;;;;;;;;;;;21.82;74.63;100307.06;5381837;32;35461;-74
2023/07/04 04:56:44;;;;;;;;;;;;;;;22.10;73.96;100310.91;5404693;32;35759;-75
2023/07/04 04:59:47;;;;;;;;;;;;;;;22.67;71.26;100306.66;5398045;32;35475;-75
2023/07/04 05:02:49;;;;;;;;;;;;;;;21.85;76.88;100320.19;5391276;32;34485;-74
2023/07/04 05:05:51;;;;;;;;;;;;;;;22.00;77.04;100320.66;5403578;32;34777;-73
2023/07/04 05:08:54;;;;;;;;;;;;;;;22.53;74.64;100334.66;5402827;32;35650;-73
2023/07/04 05:11:57;;;;;;;;;;;;;;;23.17;69.88;100344.91;5404498;32;34258;-76
2023/07/04 05:14:59;;;;;;;;;;;;;;;21.94;75.07;100367.53;5407777;32;36215;-74
2023/07/04 05:18:04;;;;;;;;;;;;;;;22.12;75.90;100368.66;5401843;32;35525;-74
2023/07/04 05:21:16;;;;;;;;;;;;;;;21.76;76.23;100382.50;5407755;32;34503;-72
2023/07/04 05:24:18;;;;;;;;;;;;;;;21.58;75.66;100372.41;5401740;32;34412;-76
2023/07/04 05:27:20;;;;;;;;;;;;;;;22.35;73.36;100360.44;5405704;32;34465;-70
2023/07/04 05:30:24;;;;;;;;;;;;;;;22.07;73.53;100373.53;5402769;32;35361;-71
2023/07/04 05:33:26;;;;;;;;;;;;;;;22.63;71.59;100362.31;5402011;32;35600;-75
2023/07/04 05:36:29;;;;;;;;;;;;;;;22.50;73.83;100361.72;5398277;32;35706;-73
2023/07/04 05:39:31;;;;;;;;;;;;;;;22.23;73.46;100361.50;5403741;32;35540;-70
2023/07/04 05:42:33;;;;;;;;;;;;;;;22.44;73.67;100354.25;5411064;32;34868;-81
2023/07/04 05:45:35;;;;;;;;;;;;;;;22.94;71.66;100360.44;5381642;32;33783;-70
2023/07/04 05:48:38;;;;;;;;;;;;;;;23.41;68.84;100359.72;5403152;32;34437;-73
2023/07/04 05:51:40;;;;;;;;;;;;;;;23.16;70.22;100369.19;5383802;32;35141;-74
2023/07/04 05:54:42;;;;;;;;;;;;;;;22.85;70.03;100381.81;5389368;32;35720;-69
2023/07/04 05:57:44;;;;;;;;;;;;;;;21.80;75.83;100379.44;5406527;32;34256;-70
2023/07/04 06:00:47;;;;;;;;;;;;;;;22.22;75.42;100379.41;5400836;32;34205;-68
2023/07/04 06:03:50;;;;;;;;;;;;;;;22.84;72.09;100369.41;5405039;32;34651;-67
2023/07/04 06:06:53;;;;;;;;;;;;;;;23.35;70.11;100379.91;5398980;32;34264;-75
2023/07/04 06:09:55;;;;;;;;;;;;;;;23.13;70.79;100381.03;5390964;32;36028;-68
2023/07/04 06:12:57;;;;;;;;;;;;;;;23.42;68.58;100383.69;5402769;32;35473;-79
2023/07/04 06:16:01;;;;;;;;;;;;;;;22.11;72.87;100393.72;5396950;32;34221;-72
2023/07/04 06:19:03;;;;;;;;;;;;;;;21.89;75.32;100389.34;5395086;32;35391;-82
2023/07/04 06:22:07;;;;;;;;;;;;;;;22.35;73.22;100390.72;5395736;32;35611;-78
2023/07/04 06:25:09;;;;;;;;;;;;;;;21.69;76.98;100402.72;5402478;32;35565;-68
2023/07/04 06:28:11;;;;;;;;;;;;;;;22.49;71.97;100389.50;5379232;32;34321;-70
2023/07/04 06:31:13;;;;;;;;;;;;;;;22.29;72.52;100395.78;5401568;32;34393;-78
2023/07/04 06:34:15;;;;;;;;;;;;;;;22.44;73.77;100397.09;5404584;32;35413;-66
2023/07/04 06:37:18;;;;;;;;;;;;;;;22.46;72.49;100405.81;5408415;32;34381;-72
2023/07/04 06:40:20;;;;;;;;;;;;;;;22.47;70.75;100401.31;5393049;32;35431;-74
2023/07/04 06:43:23;;;;;;;;;;;;;;;21.97;72.05;100418.12;5402975;32;34420;-74
2023/07/04 06:46:25;;;;;;;;;;;;;;;21.81;75.22;100415.91;5387767;32;34241;-86
2023/07/04 06:49:28;;;;;;;;;;;;;;;22.40;74.20;100411.72;5382751;32;36461;-72
2023/07/04 06:52:30;;;;;;;;;;;;;;;22.62;72.19;100424.94;5379940;32;35394;-73
2023/07/04 06:55:32;;;;;;;;;;;;;;;23.01;70.09;100417.00;5362921;32;34313;-81
2023/07/04 06:58:34;;;;;;;;;;;;;;;23.37;68.09;100412.78;5374214;32;34165;-71
2023/07/04 07:01:38;;;;;;;;;;;;;;;22.99;68.54;100408.22;5377213;32;34894;-78
2023/07/04 07:04:41;;;;;;;;;;;;;;;22.93;68.03;100409.66;5373063;32;35534;-77
2023/07/04 07:07:47;;;;;;;;;;;;;;;23.14;68.40;100398.81;5386814;32;34168;-77
2023/07/04 07:10:51;;;;;;;;;;;;;;;24.17;63.95;100400.81;5376371;32;35421;-74
2023/07/04 07:13:53;;;;;;;;;;;;;;;24.17;64.23;100399.94;5379886;32;34836;-75
2023/07/04 07:16:56;;;;;;;;;;;;;;;22.86;68.63;100411.22;5378940;32;34126;-79
2023/07/04 07:19:58;;;;;;;;;;;;;;;23.32;68.48;100419.56;5373195;32;33666;-75
2023/07/04 07:23:00;;;;;;;;;;;;;;;23.12;71.16;100408.84;5378659;32;34187;-75
2023/07/04 07:26:03;;;;;;;;;;;;;;;22.94;72.43;100416.72;5350588;32;844017;-74
2023/07/04 07:29:05;;;;;;;;;;;;;;;23.15;68.70;100407.69;5376949;32;34395;-69
2023/07/04 07:32:08;;;;;;;;;;;;;;;23.07;67.99;100415.59;5362043;32;34911;-70
2023/07/04 07:35:10;;;;;;;;;;;;;;;22.91;70.88;100416.13;5376459;32;34335;-71
2023/07/04 07:38:12;;;;;;;;;;;;;;;22.86;74.45;100418.34;5358949;32;34598;-71
2023/07/04 07:41:15;;;;;;;;;;;;;;;22.96;74.33;100413.87;5377751;32;34431;-80
2023/07/04 07:44:17;;;;;;;;;;;;;;;23.18;73.89;100402.03;5376743;32;34996;-72
2023/07/04 07:47:19;;;;;;;;;;;;;;;22.93;73.84;100422.22;5377369;32;34391;-71
2023/07/04 07:50:22;;;;;;;;;;;;;;;24.50;66.30;100415.53;5371133;32;34471;-75
2023/07/04 07:53:24;;;;;;;;;;;;;;;23.53;71.16;100412.22;5376222;32;34973;-73
2023/07/04 07:56:30;;;;;;;;;;;;;;;23.21;71.49;100424.06;5377887;32;35185;-78
2023/07/04 07:59:32;;;;;;;;;;;;;;;22.66;76.25;100422.81;5380838;32;36471;-72
2023/07/04 08:02:34;;;;;;;;;;;;;;;23.94;69.00;100416.41;5382081;32;34555;-76
2023/07/04 08:05:39;;;;;;;;;;;;;;;23.00;72.91;100418.00;5374570;32;35265;-69
2023/07/04 08:08:41;;;;;;;;;;;;;;;22.07;78.71;100419.00;5347783;32;34203;-77
2023/07/04 08:11:45;;;;;;;;;;;;;;;22.87;72.84;100420.09;5345786;32;34625;-70
2023/07/04 08:14:48;;;;;;;;;;;;;;;22.95;72.91;100417.56;5342898;32;34525;-71
2023/07/04 08:17:50;;;;;;;;;;;;;;;22.57;75.45;100423.63;5344054;32;34536;-75
2023/07/04 08:20:56;;;;;;;;;;;;;;;22.23;74.33;100431.97;5340759;32;34201;-70
2023/07/04 08:23:58;;;;;;;;;;;;;;;23.69;67.69;100435.78;5344386;32;34320;-72
2023/07/04 08:27:04;;;;;;;;;;;;;;;22.65;71.98;100447.91;5346760;32;36201;-80
2023/07/04 08:30:06;;;;;;;;;;;;;;;22.62;72.65;100448.19;5328396;32;36728;-76
2023/07/04 08:33:08;;;;;;;;;;;;;;;22.63;72.46;100445.38;5335267;32;34178;-76
2023/07/04 08:36:10;;;;;;;;;;;;;;;22.51;72.86;100446.44;5338450;32;34220;-76
2023/07/04 08:39:12;;;;;;;;;;;;;;;22.73;73.55;100448.06;5342090;32;35940;-70
2023/07/04 08:42:14;;;;;;;;;;;;;;;23.08;71.96;100444.09;5326849;32;36526;-71
2023/07/04 08:45:26;;;;;;;;;;;;;;;22.94;74.21;100443.50;5327975;32;34585;-76
2023/07/04 08:48:28;;;;;;;;;;;;;;;22.86;73.84;100437.09;5370416;32;34952;-76
2023/07/04 08:51:38;;;;;;;;;;;;;;;22.80;73.35;100435.84;5375669;32;34313;-72
2023/07/04 08:54:40;;;;;;;;;;;;;;;22.96;73.26;100429.97;5380935;32;34379;-75
2023/07/04 08:57:44;;;;;;;;;;;;;;;23.63;69.90;100431.84;5390135;32;35652;-68
2023/07/04 09:00:46;;;;;;;;;;;;;;;23.87;68.91;100431.41;5386363;32;34297;-71
2023/07/04 09:03:58;;;;;;;;;;;;;;;22.43;73.27;100433.75;5386872;32;34129;-71
2023/07/04 09:07:19;;;;;;;;;;;;;;;23.40;67.83;100435.78;5374893;32;34334;-74
2023/07/04 09:10:28;;;;;;;;;;;;;;;23.73;65.32;100432.69;5365555;32;36030;-68
2023/07/04 09:13:31;;;;;;;;;;;;;;;23.04;70.53;100432.78;5390745;32;34359;-73
2023/07/04 09:16:41;;;;;;;;;;;;;;;23.07;69.20;100432.53;5369360;32;35515;-72
2023/07/04 09:19:44;;;;;;;;;;;;;;;22.37;71.94;100444.16;5380196;32;35121;-71
2023/07/04 09:22:46;;;;;;;;;;;;;;;22.40;73.66;100443.84;5373862;32;34243;-67
2023/07/04 09:25:49;;;;;;;;;;;;;;;22.26;78.51;100441.53;5386116;32;34170;-73
2023/07/04 09:28:51;;;;;;;;;;;;;;;23.22;73.39;100441.84;5386979;32;34621;-74
2023/07/04 09:31:55;;;;;;;;;;;;;;;23.24;73.50;100447.06;5363642;32;34307;-69
2023/07/04 09:35:01;;;;;;;;;;;;;;;23.31;72.73;100445.50;5394524;32;34078;-72
2023/07/04 09:38:03;;;;;;;;;;;;;;;23.38;71.66;100440.44;5373107;32;33109;-70
2023/07/04 09:41:05;;;;;;;;;;;;;;;23.27;72.47;100451.31;5389556;32;34888;-72
2023/07/04 09:44:15;;;;;;;;;;;;;;;23.61;70.45;100439.19;5388065;32;34474;-69
2023/07/04 09:47:21;;;;;;;;;;;;;;;23.04;72.72;100451.56;5391182;32;36393;-70
2023/07/04 09:50:24;;;;;;;;;;;;;;;23.50;69.43;100444.66;5387866;32;34372;-70
2023/07/04 09:53:26;;;;;;;;;;;;;;;23.04;70.66;100445.34;5392692;32;34242;-73
2023/07/04 09:56:28;;;;;;;;;;;;;;;23.35;69.88;100448.78;5394757;32;34441;-70
2023/07/04 09:59:30;;;;;;;;;;;;;;;23.61;71.55;100444.56;5390183;32;34892;-69
2023/07/04 10:02:35;;;;;;;;;;;;;;;24.22;68.15;100440.66;5382804;32;34441;-71
2023/07/04 10:05:38;;;;;;;;;;;;;;;24.24;67.09;100436.81;5381415;32;34291;-71
2023/07/04 10:08:49;;;;;;;;;;;;;;;23.64;70.91;100441.63;5382768;32;34369;-72
2023/07/04 10:11:51;;;;;;;;;;;;;;;24.32;67.87;100436.91;5394683;32;34363;-68
2023/07/04 10:14:54;;;;;;;;;;;;;;;24.75;65.12;100427.41;5371976;32;34497;-71
2023/07/04 10:17:56;;;;;;;;;;;;;;;24.14;66.78;100433.28;5371033;32;36120;-70
2023/07/04 10:20:59;;;;;;;;;;;;;;;24.91;64.31;100428.59;5372165;32;35064;-72
2023/07/04 10:24:03;;;;;;;;;;;;;;;25.09;63.82;100427.66;5392158;32;34949;-67
2023/07/04 10:27:07;;;;;;;;;;;;;;;25.38;63.06;100422.06;5388099;32;36143;-73
2023/07/04 10:30:11;;;;;;;;;;;;;;;24.22;63.71;100427.22;5394395;32;33155;-69
2023/07/04 10:33:18;;;;;;;;;;;;;;;24.96;61.33;100415.53;5401885;32;34273;-72
2023/07/04 10:36:26;;;;;;;;;;;;;;;24.15;66.30;100431.47;5404380;32;34282;-74
2023/07/04 10:39:30;;;;;;;;;;;;;;;25.07;59.79;100415.38;5402673;32;34511;-71
2023/07/04 10:42:59;;;;;;;;;;;;;;;24.83;61.08;100414.06;5359455;32;35231;-73
2023/07/04 10:46:01;;;;;;;;;;;;;;;25.51;59.26;100415.44;5336280;32;34066;-74
2023/07/04 10:49:04;;;;;;;;;;;;;;;26.80;54.51;100411.84;5362931;32;34732;-77
2023/07/04 10:52:17;;;;;;;;;;;;;;;27.39;52.95;100399.16;5359368;32;35144;-71
2023/07/04 10:55:20;;;;;;;;;;;;;;;27.68;50.54;100408.56;5372123;32;34293;-72
2023/07/04 10:58:23;;;;;;;;;;;;;;;27.51;51.72;100415.84;5399219;32;34311;-73
2023/07/04 11:01:29;;;;;;;;;;;;;;;27.35;52.25;100405.03;5396699;32;34300;-76
2023/07/04 11:04:36;;;;;;;;;;;;;;;27.58;50.78;100400.66;5381785;32;35564;-75
2023/07/04 11:07:42;;;;;;;;;;;;;;;27.10;52.69;100396.91;5395253;32;34637;-70
2023/07/04 11:10:46;;;;;;;;;;;;;;;26.54;53.77;100411.09;5387797;32;35632;-74
2023/07/04 11:13:48;;;;;;;;;;;;;;;27.13;52.10;100398.44;5385516;32;34851;-75
2023/07/04 11:16:52;;;;;;;;;;;;;;;28.96;46.82;100393.16;5402416;32;34401;-72
2023/07/04 11:19:57;;;;;;;;;;;;;;;29.50;45.83;100395.78;5379099;32;34299;-77
2023/07/04 11:23:00;;;;;;;;;;;;;;;28.85;47.15;100394.38;5402385;32;34289;-76
2023/07/04 11:26:08;;;;;;;;;;;;;;;29.37;43.60;100391.03;5405094;32;34809;-70
2023/07/04 11:29:16;;;;;;;;;;;;;;;30.23;41.93;100386.16;5401623;32;35441;-72
2023/07/04 11:32:18;;;;;;;;;;;;;;;29.14;44.57;100381.03;5401380;32;36737;-73
2023/07/04 11:35:22;;;;;;;;;;;;;;;28.57;43.61;100384.06;5402212;32;34267;-72
2023/07/04 11:38:24;;;;;;;;;;;;;;;29.39;41.49;100387.09;5387104;32;34186;-73
2023/07/04 11:41:33;;;;;;;;;;;;;;;30.82;38.38;100380.66;5385805;32;34658;-77
2023/07/04 11:44:47;;;;;;;;;;;;;;;30.19;39.21;100381.09;5382901;32;35293;-84
2023/07/04 11:47:53;;;;;;;;;;;;;;;30.49;39.49;100383.78;5399893;32;35064;-75
2023/07/04 11:51:13;;;;;;;;;;;;;;;30.76;39.98;100376.00;5394840;32;34187;-76
2023/07/04 11:54:15;;;;;;;;;;;;;;;31.90;36.46;100374.16;5380087;32;35088;-69
2023/07/04 11:57:19;;;;;;;;;;;;;;;30.62;38.43;100364.12;5403244;32;32676;-74
2023/07/04 12:00:43;;;;;;;;;;;;;;;30.33;39.17;100378.56;5401423;32;35462;-72
2023/07/04 12:03:48;;;;;;;;;;;;;;;27.88;45.00;100382.91;5391387;32;34389;-72
2023/07/04 12:07:06;;;;;;;;;;;;;;;29.17;41.80;100369.00;5393247;32;35511;-71
2023/07/04 12:10:14;;;;;;;;;;;;;;;29.05;41.89;100373.16;5400224;32;34752;-71
2023/07/04 12:13:20;;;;;;;;;;;;;;;28.52;44.25;100370.22;5401183;32;34545;-72
2023/07/04 12:16:22;;;;;;;;;;;;;;;29.52;41.62;100364.00;5396074;32;34159;-76
2023/07/04 12:19:24;;;;;;;;;;;;;;;28.83;43.35;100363.97;5386308;32;35389;-81
2023/07/04 12:22:26;;;;;;;;;;;;;;;28.47;43.99;100367.22;5393469;32;34391;-71
2023/07/04 12:25:33;;;;;;;;;;;;;;;28.63;43.58;100366.28;5372939;32;37443;-78
2023/07/04 12:28:36;;;;;;;;;;;;;;;28.06;44.99;100369.19;5295954;32;35827;-79
2023/07/04 12:31:38;;;;;;;;;;;;;;;28.26;44.55;100358.81;5263666;32;34448;-75
2023/07/04 12:34:43;;;;;;;;;;;;;;;27.91;46.06;100358.28;5284278;32;35305;-72
2023/07/04 12:37:50;;;;;;;;;;;;;;;28.05;45.57;100348.59;5276815;32;35225;-79
2023/07/04 12:40:52;;;;;;;;;;;;;;;28.36;44.31;100351.41;5292145;32;34395;-75
2023/07/04 12:44:00;;;;;;;;;;;;;;;28.28;44.72;100356.81;5288609;32;34308;-76
2023/07/04 12:47:09;;;;;;;;;;;;;;;26.93;47.95;100347.50;5269467;32;33942;-75
2023/07/04 12:50:15;;;;;;;;;;;;;;;28.07;45.19;100346.56;5283519;32;34649;-72
2023/07/04 12:53:17;;;;;;;;;;;;;;;28.38;45.10;100343.94;5277331;32;34547;-70
2023/07/04 12:56:20;;;;;;;;;;;;;;;28.22;44.76;100342.13;5279489;32;34132;-73
2023/07/04 12:59:29;;;;;;;;;;;;;;;27.70;45.98;100349.91;5269246;32;34869;-77
2023/07/04 13:02:33;;;;;;;;;;;;;;;27.83;46.34;100354.75;5288081;32;33544;-79
2023/07/04 13:05:40;;;;;;;;;;;;;;;28.12;45.90;100351.44;5293185;32;34308;-80
2023/07/04 13:08:45;;;;;;;;;;;;;;;27.66;46.69;100343.09;5290174;32;35926;-79
2023/07/04 13:11:47;;;;;;;;;;;;;;;27.35;47.65;100348.38;5289461;32;35509;-78
2023/07/04 13:14:49;;;;;;;;;;;;;;;27.52;47.11;100350.06;5281431;32;35131;-71
2023/07/04 13:17:58;;;;;;;;;;;;;;;27.17;48.27;100343.97;5278413;32;34098;-78
2023/07/04 13:21:00;;;;;;;;;;;;;;;28.01;46.37;100337.28;5276732;32;35124;-78
2023/07/04 13:24:07;;;;;;;;;;;;;;;27.64;47.71;100348.69;5279394;32;34148;-82
2023/07/04 13:27:18;;;;;;;;;;;;;;;28.47;46.10;100342.91;5278850;32;35608;-72
2023/07/04 13:30:25;;;;;;;;;;;;;;;28.51;46.33;100344.22;5278800;32;35963;-72
2023/07/04 13:33:28;;;;;;;;;;;;;;;28.15;46.94;100348.41;5289141;32;34646;-74
2023/07/04 13:36:38;;;;;;;;;;;;;;;27.16;50.74;100341.44;5268744;32;34195;-75
2023/07/04 13:39:40;;;;;;;;;;;;;;;28.16;48.57;100340.12;5293010;32;34243;-82
2023/07/04 13:43:04;;;;;;;;;;;;;;;27.77;49.67;100346.31;5283034;32;36546;-75
2023/07/04 13:46:09;;;;;;;;;;;;;;;27.20;51.88;100345.50;5283290;32;35343;-77
2023/07/04 13:49:11;;;;;;;;;;;;;;;28.26;48.85;100337.19;5293715;32;32943;-74
2023/07/04 13:52:13;;;;;;;;;;;;;;;27.63;50.30;100329.94;5300491;32;35403;-75
2023/07/04 13:55:15;;;;;;;;;;;;;;;26.64;53.82;100337.12;5288216;32;35743;-77
2023/07/04 13:58:18;;;;;;;;;;;;;;;27.29;51.63;100333.69;5286725;32;35809;-71
2023/07/04 14:01:20;;;;;;;;;;;;;;;27.88;49.92;100337.00;5278665;32;34094;-74
2023/07/04 14:04:26;;;;;;;;;;;;;;;28.07;49.76;100333.06;5281848;32;34014;-72
2023/07/04 14:07:31;;;;;;;;;;;;;;;27.41;52.08;100328.81;5299362;32;34177;-75
2023/07/04 14:10:33;;;;;;;;;;;;;;;28.69;48.53;100335.00;5306774;32;35745;-75
2023/07/04 14:13:36;;;;;;;;;;;;;;;27.98;50.71;100326.84;5347235;32;34148;-71
2023/07/04 14:16:38;;;;;;;;;;;;;;;28.24;50.08;100321.16;5394378;32;34862;-75
2023/07/04 14:19:59;;;;;;;;;;;;;;;28.74;48.30;100305.56;5397750;32;35890;-74
2023/07/04 14:23:03;;;;;;;;;;;;;;;28.98;47.52;100304.53;5391259;32;35372;-71
2023/07/04 14:26:11;;;;;;;;;;;;;;;29.01;47.21;100307.75;5394221;32;33562;-72
2023/07/04 14:29:13;;;;;;;;;;;;;;;28.78;47.84;100290.63;5390115;32;34800;-72
2023/07/04 14:32:15;;;;;;;;;;;;;;;27.60;50.68;100295.19;5404953;32;35300;-75
2023/07/04 14:35:17;;;;;;;;;;;;;;;27.74;50.21;100297.22;5397012;32;34750;-74
2023/07/04 14:38:19;;;;;;;;;;;;;;;27.49;51.07;100289.13;5387264;32;35091;-71
2023/07/04 14:41:21;;;;;;;;;;;;;;;28.39;49.50;100278.03;5400864;32;34833;-73
2023/07/04 14:44:26;;;;;;;;;;;;;;;28.80;48.11;100283.19;5393459;32;33801;-73
2023/07/04 14:47:28;;;;;;;;;;;;;;;27.69;51.03;100278.81;5394472;32;34643;-71
2023/07/04 14:50:30;;;;;;;;;;;;;;;27.24;51.64;100280.25;5408090;32;35475;-75
2023/07/04 14:53:33;;;;;;;;;;;;;;;27.82;49.49;100278.28;5409871;32;34249;-72
2023/07/04 14:56:35;;;;;;;;;;;;;;;27.51;50.44;100281.72;5391302;32;34178;-72
2023/07/04 14:59:51;;;;;;;;;;;;;;;27.98;49.58;100270.13;5409046;32;34758;-71
2023/07/04 15:02:53;;;;;;;;;;;;;;;27.58;50.20;100264.84;5379321;32;34575;-75
2023/07/04 15:06:05;;;;;;;;;;;;;;;27.74;49.99;100271.06;5405733;32;35057;-73
2023/07/04 15:09:08;;;;;;;;;;;;;;;27.88;48.87;100261.37;5394517;32;34462;-75
2023/07/04 15:12:10;;;;;;;;;;;;;;;27.41;50.26;100266.72;5399636;32;35064;-71
2023/07/04 15:15:12;;;;;;;;;;;;;;;28.52;47.23;100250.44;5382776;32;34425;-71
2023/07/04 15:18:14;;;;;;;;;;;;;;;27.89;47.82;100256.84;5408976;32;33496;-72
2023/07/04 15:21:16;;;;;;;;;;;;;;;27.46;49.46;100259.81;5398563;32;35216;-72
2023/07/04 15:24:19;;;;;;;;;;;;;;;28.12;47.27;100252.34;5392211;32;35300;-72
2023/07/04 15:27:21;;;;;;;;;;;;;;;28.01;48.03;100263.53;5400361;32;34717;-71
2023/07/04 15:30:23;;;;;;;;;;;;;;;28.31;46.17;100251.91;5402950;32;36780;-75
2023/07/04 15:33:27;;;;;;;;;;;;;;;28.11;47.04;100249.81;5409540;32;35565;-71
2023/07/04 15:36:30;;;;;;;;;;;;;;;27.43;49.25;100248.50;5409485;32;34942;-71
2023/07/04 15:39:32;;;;;;;;;;;;;;;27.39;49.57;100245.31;5403009;32;35080;-72
2023/07/04 15:42:34;;;;;;;;;;;;;;;28.17;47.86;100241.00;5404166;32;34704;-74